createdAt,value
2019-04-23T00:00:13.609Z,94083.77
2019-04-23T00:03:08.569Z,94081.83
2019-04-23T00:06:00.099Z,94079.81
2019-04-23T00:08:50.127Z,94076.51
2019-04-23T00:11:35.112Z,94071.16
2019-04-23T00:14:29.870Z,94070.02
2019-04-23T00:17:17.920Z,94065.70
2019-04-23T00:20:04.561Z,94058.16
2019-04-23T00:23:10.942Z,94050.98
2019-04-23T00:26:17.776Z,94050.91
2019-04-23T00:29:15.014Z,94046.28
2019-04-23T00:31:53.282Z,94044.23
2019-04-23T00:34:49.637Z,94050.76
2019-04-23T00:37:31.347Z,94045.59
2019-04-23T00:40:21.793Z,94054.13
2019-04-23T00:43:17.362Z,94053.03
2019-04-23T00:45:54.554Z,94049.31
2019-04-23T00:48:59.161Z,94055.64
2019-04-23T00:51:38.326Z,94061.16
2019-04-23T00:54:30.767Z,94062.69
2019-04-23T00:57:24.520Z,94061.29
2019-04-23T01:00:19.272Z,94058.91
2019-04-23T01:03:01.751Z,94055.42
2019-04-23T01:05:47.062Z,94050.25
2019-04-23T01:08:36.745Z,94056.31
2019-04-23T01:11:27.652Z,94050.75
2019-04-23T01:14:16.239Z,94052.53
2019-04-23T01:17:08.485Z,94057.77
2019-04-23T01:19:58.022Z,94060.94
2019-04-23T01:22:29.390Z,94064.89
2019-04-23T01:25:39.394Z,94062.70
2019-04-23T01:28:42.422Z,94063.66
2019-04-23T01:31:33.179Z,94059.32
2019-04-23T01:34:28.012Z,94070.05
2019-04-23T01:37:15.515Z,94068.69
2019-04-23T01:45:31.580Z,94065.57
2019-04-23T01:48:26.119Z,94074.88
2019-04-23T01:51:20.455Z,94062.05
2019-04-23T01:54:06.559Z,94057.19
2019-04-23T01:56:56.660Z,94066.77
2019-04-23T01:59:53.141Z,94063.31
2019-04-23T02:02:46.082Z,94066.03
2019-04-23T02:05:27.521Z,94056.89
2019-04-23T02:08:13.959Z,94052.83
2019-04-23T02:11:00.364Z,94053.21
2019-04-23T02:13:54.770Z,94049.36
2019-04-23T02:16:47.824Z,94058.21
2019-04-23T02:19:38.748Z,94060.86
2019-04-23T02:22:46.368Z,94050.53
2019-04-23T02:25:39.623Z,94054.48
2019-04-23T02:28:24.280Z,94046.60
2019-04-23T02:31:25.281Z,94031.45
2019-04-23T02:34:00.509Z,94025.63
2019-04-23T02:45:16.880Z,94039.11
2019-04-23T02:48:19.748Z,94022.12
2019-04-23T02:50:57.819Z,94017.34
2019-04-23T02:54:00.600Z,94015.44
2019-04-23T02:59:42.349Z,94013.69
2019-04-23T03:05:04.468Z,94012.20
2019-04-23T03:08:10.208Z,94017.59
2019-04-23T03:10:59.902Z,94011.50
2019-04-23T03:19:58.839Z,94024.39
2019-04-23T03:23:20.312Z,94020.22
2019-04-23T03:26:11.149Z,94028.98
2019-04-23T03:43:06.511Z,94024.83
2019-04-23T03:46:00.898Z,94028.20
2019-04-23T03:48:41.753Z,94018.09
2019-04-23T03:51:31.367Z,94018.81
2019-04-23T03:54:28.406Z,94022.77
2019-04-23T03:57:15.532Z,94026.06
2019-04-23T04:00:13.165Z,94031.70
2019-04-23T04:05:37.179Z,94034.97
2019-04-23T04:14:12.131Z,94033.22
2019-04-23T04:16:49.162Z,94043.78
2019-04-23T04:19:44.849Z,94048.84
2019-04-23T04:22:37.392Z,94041.78
2019-04-23T04:25:26.041Z,94049.60
2019-04-23T04:39:26.522Z,94024.27
2019-04-23T04:42:12.432Z,94024.70
2019-04-23T04:45:16.737Z,94015.16
2019-04-23T04:47:45.621Z,94013.22
2019-04-23T04:51:00.410Z,94019.72
2019-04-23T04:56:30.295Z,94021.27
2019-04-23T04:59:08.768Z,94015.44
2019-04-23T05:02:09.799Z,93996.47
2019-04-23T05:10:41.339Z,94015.94
2019-04-23T05:13:33.776Z,94010.69
2019-04-23T05:27:28.942Z,93994.27
2019-04-23T05:33:11.853Z,94010.24
2019-04-23T05:38:52.935Z,94012.69
2019-04-23T05:41:38.527Z,94004.55
2019-04-23T05:44:29.969Z,94002.73
2019-04-23T05:47:17.111Z,94001.95
2019-04-23T05:50:15.541Z,94013.02
2019-04-23T05:52:57.753Z,94005.89
2019-04-23T05:55:43.032Z,94006.99
2019-04-23T06:04:19.116Z,93997.91
2019-04-23T06:09:59.199Z,94007.22
2019-04-23T06:12:47.212Z,94007.56
2019-04-23T06:15:36.966Z,94007.34
2019-04-23T06:18:34.760Z,93999.59
2019-04-23T06:21:31.281Z,93997.36
2019-04-23T06:24:16.995Z,94002.97
2019-04-23T06:27:00.977Z,94005.16
2019-04-23T06:29:43.316Z,94010.13
2019-04-23T06:32:41.351Z,93999.54
2019-04-23T06:35:32.012Z,93991.97
2019-04-23T06:41:09.877Z,93992.31
2019-04-23T06:44:14.360Z,93983.66
2019-04-23T06:47:00.307Z,93980.62
2019-04-23T06:49:46.842Z,93977.97
2019-04-23T06:52:26.547Z,93981.55
2019-04-23T06:55:26.606Z,93978.53
2019-04-23T06:58:24.134Z,93981.98
2019-04-23T07:01:01.981Z,93972.32
2019-04-23T07:03:50.690Z,93973.18
2019-04-23T07:07:21.603Z,93971.44
2019-04-23T07:09:35.249Z,93977.38
2019-04-23T07:12:23.927Z,93974.09
2019-04-23T07:15:16.405Z,93970.25
2019-04-23T07:18:00.661Z,93970.88
2019-04-23T07:20:51.195Z,93971.20
2019-04-23T07:23:45.629Z,93964.87
2019-04-23T07:29:16.021Z,93968.37
2019-04-23T07:32:05.410Z,93968.14
2019-04-23T07:35:00.979Z,93968.64
2019-04-23T07:37:49.957Z,93962.34
2019-04-23T07:40:57.418Z,93960.14
2019-04-23T07:43:40.418Z,93962.96
2019-04-23T07:46:40.753Z,93966.78
2019-04-23T07:49:26.555Z,93973.28
2019-04-23T07:52:20.125Z,93968.51
2019-04-23T07:58:01.981Z,93967.29
2019-04-23T08:03:39.578Z,93972.66
2019-04-23T08:06:19.279Z,93963.24
2019-04-23T08:09:09.123Z,93963.21
2019-04-23T08:11:56.657Z,93967.65
2019-04-23T08:14:56.601Z,93962.91
2019-04-23T08:17:37.467Z,93959.45
2019-04-23T08:20:30.254Z,93968.17
2019-04-23T08:23:25.782Z,93964.75
2019-04-23T08:26:50.239Z,93956.98
2019-04-23T08:29:21.648Z,93958.44
2019-04-23T08:32:16.828Z,93960.02
2019-04-23T08:35:03.157Z,93956.75
2019-04-23T08:38:04.561Z,93963.27
2019-04-23T08:40:43.191Z,93961.48
2019-04-23T08:43:42.858Z,93961.30
2019-04-23T08:47:10.342Z,93967.77
2019-04-23T08:52:32.597Z,93961.73
2019-04-23T08:58:15.594Z,93966.23
2019-04-23T09:01:07.769Z,93970.97
2019-04-23T09:03:47.185Z,93971.23
2019-04-23T09:06:37.081Z,93967.26
2019-04-23T09:09:37.953Z,93962.81
2019-04-23T09:12:23.980Z,93971.30
2019-04-23T09:15:15.355Z,93969.92
2019-04-23T09:18:03.013Z,93976.09
2019-04-23T09:20:44.528Z,93968.17
2019-04-23T09:23:45.144Z,93975.12
2019-04-23T09:26:25.957Z,93972.94
2019-04-23T09:29:19.809Z,93980.63
2019-04-23T09:32:23.912Z,93973.08
2019-04-23T09:35:29.287Z,93976.33
2019-04-23T09:38:44.618Z,93979.89
2019-04-23T09:41:39.549Z,93980.47
2019-04-23T09:45:00.047Z,93974.58
2019-04-23T09:48:18.228Z,93974.79
2019-04-23T09:53:57.689Z,93977.80
2019-04-23T09:59:31.029Z,93978.34
2019-04-23T10:02:08.369Z,93982.91
2019-04-23T10:04:52.951Z,93977.99
2019-04-23T10:07:40.505Z,93981.75
2019-04-23T10:10:16.702Z,93981.84
2019-04-23T10:13:06.012Z,93976.98
2019-04-23T10:15:55.429Z,93982.39
2019-04-23T10:18:42.836Z,93976.05
2019-04-23T10:21:31.177Z,93977.81
2019-04-23T10:24:19.345Z,93975.60
2019-04-23T10:27:08.192Z,93971.64
2019-04-23T10:29:56.414Z,93977.56
2019-04-23T10:32:45.206Z,93975.00
2019-04-23T10:35:43.240Z,93974.38
2019-04-23T10:38:22.571Z,93972.22
2019-04-23T10:41:12.019Z,93966.86
2019-04-23T10:44:09.038Z,93973.74
2019-04-23T10:47:45.178Z,93969.79
2019-04-23T10:50:51.481Z,93970.41
2019-04-23T10:56:44.830Z,93976.70
2019-04-23T10:59:38.966Z,93975.17
2019-04-23T11:05:15.859Z,93966.97
2019-04-23T11:08:02.354Z,93967.78
2019-04-23T11:10:58.955Z,93970.47
2019-04-23T11:13:53.034Z,93968.62
2019-04-23T11:16:56.696Z,93965.81
2019-04-23T11:19:40.427Z,93963.08
2019-04-23T11:22:38.919Z,93964.66
2019-04-23T11:25:20.492Z,93968.89
2019-04-23T11:28:03.210Z,93962.13
2019-04-23T11:33:46.377Z,93963.17
2019-04-23T11:39:28.871Z,93963.51
2019-04-23T11:42:11.538Z,93957.30
2019-04-23T11:51:07.234Z,93965.02
2019-04-23T11:53:35.095Z,93962.56
2019-04-23T11:56:51.516Z,93965.32
2019-04-23T11:59:07.545Z,93970.53
2019-04-23T12:05:32.330Z,93975.80
2019-04-23T12:08:50.189Z,93975.75
2019-04-23T12:11:53.472Z,93971.70
2019-04-23T12:20:28.642Z,93973.87
2019-04-23T12:23:08.973Z,93972.13
2019-04-23T12:25:47.600Z,93972.39
2019-04-23T12:28:40.211Z,93975.78
2019-04-23T12:31:32.729Z,93971.77
2019-04-23T12:34:25.758Z,93976.70
2019-04-23T12:37:04.131Z,93975.06
2019-04-23T12:40:07.068Z,93973.01
2019-04-23T12:48:41.312Z,93973.70
2019-04-23T12:51:26.590Z,93966.20
2019-04-23T12:54:07.682Z,93964.06
2019-04-23T12:57:20.761Z,93966.94
2019-04-23T12:59:44.337Z,93961.66
2019-04-23T13:08:26.875Z,93954.63
2019-04-23T13:11:07.946Z,93958.94
2019-04-23T13:13:51.922Z,93950.87
2019-04-23T13:16:44.663Z,93945.02
2019-04-23T13:19:40.156Z,93947.95
2019-04-23T13:22:27.881Z,93940.29
2019-04-23T13:25:34.570Z,93948.03
2019-04-23T13:28:21.723Z,93942.18
2019-04-23T13:31:08.596Z,93932.89
2019-04-23T13:33:49.970Z,93933.17
2019-04-23T13:36:45.364Z,93935.70
2019-04-23T13:39:40.401Z,93935.98
2019-04-23T13:42:33.695Z,93926.30
2019-04-23T13:45:35.668Z,93928.64
2019-04-23T13:48:06.144Z,93920.64
2019-04-23T13:53:53.390Z,93914.75
2019-04-23T13:59:30.555Z,93923.46
2019-04-23T14:02:23.528Z,93912.33
2019-04-23T14:05:21.661Z,93913.95
2019-04-23T14:08:13.830Z,93916.88
2019-04-23T14:10:51.911Z,93915.75
2019-04-23T14:19:16.282Z,93897.31
2019-04-23T14:28:06.747Z,93893.42
2019-04-23T14:30:56.005Z,93900.66
2019-04-23T14:36:27.026Z,93906.94
2019-04-23T14:39:24.441Z,93902.96
2019-04-23T14:42:21.717Z,93905.16
2019-04-23T14:45:13.955Z,93902.87
2019-04-23T14:53:30.241Z,93895.83
2019-04-23T14:56:20.134Z,93900.73
2019-04-23T15:01:58.237Z,93905.19
2019-04-23T15:04:48.220Z,93899.81
2019-04-23T15:07:37.595Z,93899.06
2019-04-23T15:13:16.897Z,93899.38
2019-04-23T15:19:22.073Z,93892.14
2019-04-23T15:22:04.795Z,93895.22
2019-04-23T15:24:50.147Z,93888.28
2019-04-23T15:28:05.317Z,93886.11
2019-04-23T15:30:17.672Z,93885.22
2019-04-23T15:36:23.914Z,93892.16
2019-04-23T15:39:08.813Z,93893.53
2019-04-23T15:41:49.043Z,93888.15
2019-04-23T15:44:21.823Z,93887.55
2019-04-23T15:50:17.577Z,93898.61
2019-04-23T15:52:56.457Z,93886.32
2019-04-23T15:55:50.202Z,93894.63
2019-04-23T15:58:48.545Z,93892.46
2019-04-23T16:01:29.346Z,93890.77
2019-04-23T16:03:49.688Z,93893.80
2019-04-23T16:06:38.876Z,93888.08
2019-04-23T16:10:04.351Z,93894.66
2019-04-23T16:12:51.642Z,93889.89
2019-04-23T16:15:37.320Z,93889.23
2019-04-23T16:18:37.453Z,93892.72
2019-04-23T16:21:31.877Z,93894.98
2019-04-23T16:24:18.035Z,93893.87
2019-04-23T16:30:00.227Z,93892.42
2019-04-23T16:32:58.730Z,93896.43
2019-04-23T16:36:08.795Z,93904.59
2019-04-23T16:38:52.054Z,93898.90
2019-04-23T16:41:42.270Z,93897.91
2019-04-23T16:44:39.351Z,93893.32
2019-04-23T16:47:21.814Z,93890.05
2019-04-23T16:50:13.075Z,93894.95
2019-04-23T16:52:59.959Z,93892.87
2019-04-23T16:55:55.295Z,93889.03
2019-04-23T17:01:22.911Z,93893.19
2019-04-23T17:04:19.587Z,93883.67
2019-04-23T17:07:03.793Z,93883.30
2019-04-23T17:10:00.682Z,93885.47
2019-04-23T17:12:47.436Z,93885.42
2019-04-23T17:15:34.567Z,93885.06
2019-04-23T17:18:26.255Z,93889.05
2019-04-23T17:21:24.035Z,93880.03
2019-04-23T17:24:09.485Z,93889.49
2019-04-23T17:27:11.090Z,93887.79
2019-04-23T17:32:28.252Z,93890.19
2019-04-23T17:35:30.114Z,93892.22
2019-04-23T17:38:42.331Z,93885.30
2019-04-23T17:47:08.719Z,93896.30
2019-04-23T17:49:59.706Z,93894.09
2019-04-23T17:52:47.393Z,93898.00
2019-04-23T17:55:34.906Z,93907.50
2019-04-23T17:58:24.775Z,93906.77
2019-04-23T18:01:20.136Z,93909.81
2019-04-23T18:04:23.962Z,93913.70
2019-04-23T18:09:51.383Z,93919.22
2019-04-23T18:15:21.289Z,93919.56
2019-04-23T18:18:10.076Z,93929.64
2019-04-23T18:24:38.483Z,93923.86
2019-04-23T18:27:23.343Z,93930.16
2019-04-23T18:30:26.456Z,93938.70
2019-04-23T18:36:19.595Z,93937.84
2019-04-23T18:39:12.384Z,93934.81
2019-04-23T18:45:00.321Z,93942.06
2019-04-23T18:47:47.313Z,93936.42
2019-04-23T18:50:48.182Z,93938.30
2019-04-23T18:53:32.367Z,93947.08
2019-04-23T18:56:31.287Z,93951.37
2019-04-23T18:59:24.884Z,93957.05
2019-04-23T19:02:31.778Z,93961.67
2019-04-23T19:14:27.661Z,93977.27
2019-04-23T19:17:35.779Z,93984.98
2019-04-23T19:19:55.274Z,93983.25
2019-04-23T19:22:55.231Z,93982.76
2019-04-23T19:28:44.466Z,93990.11
2019-04-23T19:31:28.640Z,93991.83
2019-04-23T19:34:21.313Z,93988.73
2019-04-23T19:37:15.369Z,93991.30
2019-04-23T19:39:55.129Z,93996.62
2019-04-23T19:42:44.818Z,94006.39
2019-04-23T19:45:40.576Z,94000.81
2019-04-23T19:48:25.299Z,94010.33
2019-04-23T19:51:09.559Z,94012.88
2019-04-23T19:54:09.452Z,94020.66
2019-04-23T20:02:38.590Z,94015.67
2019-04-23T20:05:13.783Z,94023.12
2019-04-23T20:10:54.564Z,94023.94
2019-04-23T20:13:52.669Z,94038.47
2019-04-23T20:16:48.956Z,94024.77
2019-04-23T20:19:30.138Z,94029.92
2019-04-23T20:22:16.705Z,94030.97
2019-04-23T20:31:45.026Z,94034.14
2019-04-23T20:32:05.551Z,94039.27
2019-04-23T20:37:06.521Z,94043.55
2019-04-23T20:39:52.463Z,94036.95
2019-04-23T20:42:36.617Z,94040.00
2019-04-23T20:45:35.016Z,94040.77
2019-04-23T20:48:16.058Z,94038.25
2019-04-23T20:51:00.473Z,94040.05
2019-04-23T20:54:02.264Z,94035.91
2019-04-23T20:56:55.983Z,94042.53
2019-04-23T20:59:45.511Z,94048.16
2019-04-23T21:02:54.072Z,94037.38
2019-04-23T21:05:27.700Z,94041.39
2019-04-23T21:10:55.690Z,94051.66
2019-04-23T21:14:10.816Z,94051.95
2019-04-23T21:16:41.252Z,94049.30
2019-04-23T21:19:42.055Z,94046.06
2019-04-23T21:22:18.840Z,94051.36
2019-04-23T21:25:08.310Z,94064.88
2019-04-23T21:36:49.515Z,94070.77
2019-04-23T21:45:56.814Z,94062.13
2019-04-23T21:49:01.919Z,94067.55
2019-04-23T21:54:25.741Z,94074.09
2019-04-23T21:57:11.712Z,94078.45
2019-04-23T21:59:59.178Z,94086.05
2019-04-23T22:02:54.729Z,94082.97
2019-04-23T22:06:10.093Z,94076.89
2019-04-23T22:08:28.980Z,94080.99
2019-04-23T22:11:42.873Z,94081.10
2019-04-23T22:14:10.269Z,94082.84
2019-04-23T22:17:04.749Z,94081.47
2019-04-23T22:19:55.620Z,94087.19
2019-04-23T22:22:51.172Z,94090.11
2019-04-23T22:25:31.691Z,94093.84
2019-04-23T22:28:20.019Z,94090.92
2019-04-23T22:31:12.347Z,94084.84
2019-04-23T22:34:04.937Z,94087.77
2019-04-23T22:36:48.277Z,94091.23
2019-04-23T22:39:31.757Z,94089.00
2019-04-23T22:42:41.294Z,94089.38
2019-04-23T22:45:27.072Z,94083.84
2019-04-23T22:48:04.530Z,94090.88
2019-04-23T22:51:04.859Z,94090.27
2019-04-23T22:53:41.778Z,94096.22
2019-04-23T22:56:35.090Z,94101.45
2019-04-23T23:02:35.027Z,94098.34
2019-04-23T23:05:37.469Z,94112.14
2019-04-23T23:10:56.635Z,94113.43
2019-04-23T23:14:01.076Z,94116.61
2019-04-23T23:16:27.801Z,94117.34
2019-04-23T23:25:06.523Z,94122.64
2019-04-23T23:30:52.004Z,94121.89
2019-04-23T23:36:20.512Z,94123.18
2019-04-23T23:39:22.700Z,94135.27
2019-04-23T23:41:57.197Z,94134.65
2019-04-23T23:47:28.842Z,94133.61
2019-04-23T23:50:50.160Z,94134.88
2019-04-23T23:53:23.337Z,94138.63
2019-04-23T23:56:10.864Z,94147.89
2019-04-23T23:58:58.300Z,94144.80
